Time;durP1;ratioP1;P1;durP2;ratioP2;P2;SDS_P1;SDS_P2;PMS_P1;PMS_P2;Temp;Humidity;BMP_temperature;BMP_pressure;BME280_temperature;BME280_humidity;BME280_pressure;Samples;Min_cycle;Max_cycle;Signal;HPM_P1;HPM_P2
2023/05/11 00:01:31;;;;;;;3.53;1.73;;;10.90;69.80;;;;;;5081728;28;46405;-67
2023/05/11 00:03:57;;;;;;;3.47;1.80;;;10.90;69.90;;;;;;5079758;28;46492;-67
2023/05/11 00:06:23;;;;;;;2.77;1.73;;;10.90;70.00;;;;;;5081885;28;46358;-68
2023/05/11 00:08:49;;;;;;;3.47;1.70;;;10.80;70.20;;;;;;5080500;28;46365;-67
2023/05/11 00:11:15;;;;;;;3.47;1.83;;;10.80;71.10;;;;;;5079765;28;46578;-67
2023/05/11 00:13:41;;;;;;;3.43;2.10;;;10.70;70.50;;;;;;5079364;28;45810;-67
2023/05/11 00:16:06;;;;;;;4.77;1.97;;;10.70;70.70;;;;;;5081368;28;46446;-67
2023/05/11 00:18:32;;;;;;;2.60;1.67;;;10.80;71.80;;;;;;5081969;28;45746;-67
2023/05/11 00:20:57;;;;;;;4.60;2.00;;;10.90;70.30;;;;;;5078231;28;45743;-66
2023/05/11 00:23:23;;;;;;;3.87;1.73;;;10.90;70.10;;;;;;5081193;28;46453;-67
2023/05/11 00:25:48;;;;;;;2.77;1.60;;;10.90;70.00;;;;;;5080847;28;47061;-67
2023/05/11 00:28:14;;;;;;;2.70;1.60;;;10.80;70.10;;;;;;5081630;28;45797;-67
2023/05/11 00:30:40;;;;;;;2.57;1.53;;;10.80;70.20;;;;;;5076252;28;45823;-67
2023/05/11 00:33:06;;;;;;;3.40;1.90;;;10.80;70.50;;;;;;5081828;28;46794;-67
2023/05/11 00:35:32;;;;;;;2.23;1.40;;;10.70;70.50;;;;;;5079918;28;46168;-67
2023/05/11 00:37:58;;;;;;;5.30;1.40;;;10.70;70.60;;;;;;5076270;28;46389;-67
2023/05/11 00:40:23;;;;;;;3.53;1.53;;;10.70;70.70;;;;;;5080554;28;45739;-67
2023/05/11 00:42:49;;;;;;;2.80;1.90;;;10.70;70.70;;;;;;5076685;28;46617;-67
2023/05/11 00:45:15;;;;;;;4.73;1.80;;;10.80;71.70;;;;;;5080718;28;46408;-67
2023/05/11 00:47:41;;;;;;;4.00;1.80;;;10.80;70.40;;;;;;5079339;28;46372;-67
2023/05/11 00:50:08;;;;;;;3.80;1.60;;;10.70;70.50;;;;;;5078774;28;46384;-67
2023/05/11 00:52:33;;;;;;;3.27;1.33;;;10.70;70.60;;;;;;5077733;28;46297;-67
2023/05/11 00:54:59;;;;;;;2.20;1.40;;;10.70;70.70;;;;;;5081271;28;47151;-67
2023/05/11 00:57:26;;;;;;;2.50;1.50;;;10.70;70.80;;;;;;5080320;28;45801;-67
2023/05/11 00:59:51;;;;;;;2.30;1.50;;;10.70;70.60;;;;;;5078065;28;46454;-67
2023/05/11 01:02:17;;;;;;;3.00;1.60;;;10.70;70.60;;;;;;5077511;28;46520;-67
2023/05/11 01:04:43;;;;;;;2.70;1.20;;;10.70;70.50;;;;;;5077711;28;47016;-67
2023/05/11 01:07:19;;;;;;;5.63;1.53;;;10.70;70.50;;;;;;5078918;28;46409;-67
2023/05/11 01:09:49;;;;;;;3.30;1.20;;;10.70;70.50;;;;;;5081208;28;46446;-68
2023/05/11 01:12:22;;;;;;;2.10;1.30;;;10.70;70.60;;;;;;5080398;28;46388;-67
2023/05/11 01:14:59;;;;;;;3.13;1.33;;;10.70;70.50;;;;;;5081311;28;46633;-67
2023/05/11 01:17:42;;;;;;;1.90;1.23;;;10.70;70.30;;;;;;5080302;28;46374;-67
2023/05/11 01:20:15;;;;;;;5.53;1.50;;;10.80;70.20;;;;;;5076969;28;46387;-68
2023/05/11 01:23:25;;;;;;;2.20;1.60;;;10.80;70.10;;;;;;5079303;28;46415;-67
2023/05/11 01:25:55;;;;;;;2.33;1.43;;;10.70;70.00;;;;;;5037402;28;47236;-68
2023/05/11 01:28:30;;;;;;;3.73;1.40;;;10.80;70.10;;;;;;5070824;28;46380;-67
2023/05/11 01:31:09;;;;;;;3.30;1.40;;;10.80;70.20;;;;;;5080069;28;46342;-67
2023/05/11 01:33:39;;;;;;;3.50;1.37;;;10.70;70.20;;;;;;5080311;27;46375;-67
2023/05/11 01:36:08;;;;;;;2.60;1.23;;;10.70;70.40;;;;;;5076985;28;46628;-68
2023/05/11 01:38:38;;;;;;;2.77;1.47;;;10.60;70.50;;;;;;5079142;28;46376;-68
2023/05/11 01:41:12;;;;;;;2.40;1.40;;;10.60;70.60;;;;;;5079474;28;46472;-66
2023/05/11 01:43:40;;;;;;;2.47;1.30;;;10.60;70.50;;;;;;5077812;28;46449;-68
2023/05/11 01:46:09;;;;;;;3.33;1.20;;;10.60;70.50;;;;;;5077522;28;46567;-66
2023/05/11 01:48:38;;;;;;;2.80;1.20;;;10.60;70.50;;;;;;5077783;28;46357;-68
2023/05/11 01:51:04;;;;;;;1.50;1.00;;;10.50;70.50;;;;;;5076447;28;46468;-68
2023/05/11 01:53:37;;;;;;;4.13;1.10;;;10.50;70.90;;;;;;5079912;28;45954;-67
2023/05/11 01:56:04;;;;;;;2.93;1.20;;;10.50;71.10;;;;;;5076782;28;46404;-67
2023/05/11 01:58:33;;;;;;;4.97;1.40;;;10.50;70.90;;;;;;5077772;27;46416;-66
2023/05/11 02:01:01;;;;;;;2.40;1.07;;;10.50;70.60;;;;;;5080693;28;46399;-68
2023/05/11 02:03:31;;;;;;;2.03;1.10;;;10.50;70.70;;;;;;5079728;28;46345;-67
2023/05/11 02:05:58;;;;;;;1.83;1.17;;;10.50;70.90;;;;;;5080503;28;46338;-67
2023/05/11 02:08:26;;;;;;;1.83;0.93;;;10.50;71.00;;;;;;5079199;28;46475;-67
2023/05/11 02:10:53;;;;;;;2.00;1.17;;;10.40;70.90;;;;;;5078404;28;45818;-67
2023/05/11 02:13:21;;;;;;;3.03;1.13;;;10.50;70.90;;;;;;5075212;28;46663;-66
2023/05/11 02:15:49;;;;;;;3.57;1.17;;;10.50;70.80;;;;;;5078771;28;46276;-66
2023/05/11 02:18:16;;;;;;;2.67;1.23;;;10.50;70.80;;;;;;5076826;28;46376;-66
2023/05/11 02:20:44;;;;;;;3.00;1.20;;;10.50;70.70;;;;;;5080355;28;46495;-67
2023/05/11 02:23:10;;;;;;;4.00;1.30;;;10.50;70.80;;;;;;5077493;28;46530;-67
2023/05/11 02:25:37;;;;;;;3.50;1.17;;;10.50;70.90;;;;;;5079011;28;47115;-66
2023/05/11 02:28:03;;;;;;;1.73;1.10;;;10.40;70.90;;;;;;5077947;28;45846;-66
2023/05/11 02:30:31;;;;;;;4.70;1.53;;;10.50;70.90;;;;;;5080640;28;46356;-68
2023/05/11 02:33:03;;;;;;;4.13;1.17;;;10.50;71.00;;;;;;5078157;28;45839;-67
2023/05/11 02:35:32;;;;;;;2.30;1.30;;;10.40;70.90;;;;;;5079316;28;46401;-67
2023/05/11 02:38:00;;;;;;;8.70;1.33;;;10.50;71.20;;;;;;5079369;28;46373;-67
2023/05/11 02:40:32;;;;;;;2.20;1.30;;;10.50;71.10;;;;;;5078818;27;46342;-67
2023/05/11 02:43:06;;;;;;;1.97;1.20;;;10.40;71.00;;;;;;5079628;28;46333;-67
2023/05/11 02:45:34;;;;;;;3.00;1.93;;;10.40;71.10;;;;;;5075773;28;47055;-67
2023/05/11 02:48:06;;;;;;;2.63;1.40;;;10.50;72.20;;;;;;5078654;28;46447;-67
2023/05/11 02:50:36;;;;;;;2.83;1.30;;;10.50;70.90;;;;;;5077978;28;46477;-67
2023/05/11 02:53:07;;;;;;;3.17;1.50;;;10.50;70.90;;;;;;5078233;28;46358;-67
2023/05/11 02:55:32;;;;;;;2.37;1.20;;;10.50;71.00;;;;;;5081080;28;46370;-67
2023/05/11 02:57:58;;;;;;;2.87;1.30;;;10.50;70.90;;;;;;5078420;28;46459;-68
2023/05/11 03:00:24;;;;;;;2.00;1.23;;;10.50;70.70;;;;;;5078891;28;46528;-67
2023/05/11 03:02:50;;;;;;;3.87;1.27;;;10.50;70.60;;;;;;5078159;28;46298;-67
2023/05/11 03:05:16;;;;;;;2.30;1.40;;;10.60;70.70;;;;;;5078257;27;46451;-67
2023/05/11 03:07:42;;;;;;;4.27;1.63;;;10.60;70.60;;;;;;5078440;28;46361;-67
2023/05/11 03:10:09;;;;;;;4.03;1.57;;;10.60;70.50;;;;;;5076143;28;46524;-67
2023/05/11 03:12:35;;;;;;;5.37;1.90;;;10.60;70.40;;;;;;5081393;28;45927;-68
2023/05/11 03:15:03;;;;;;;3.63;1.47;;;10.70;70.30;;;;;;5083303;28;47331;-67
2023/05/11 03:17:29;;;;;;;4.03;1.53;;;10.60;70.10;;;;;;5083590;28;45900;-66
2023/05/11 03:19:57;;;;;;;2.73;1.50;;;10.70;70.00;;;;;;5076324;28;46345;-67
2023/05/11 03:22:23;;;;;;;4.03;1.30;;;10.70;70.10;;;;;;5080187;28;46517;-67
2023/05/11 03:24:50;;;;;;;2.47;1.57;;;10.70;70.00;;;;;;5079483;28;47324;-67
2023/05/11 03:27:17;;;;;;;2.10;1.30;;;10.70;70.10;;;;;;5079562;28;46339;-67
2023/05/11 03:29:44;;;;;;;1.77;1.20;;;10.70;70.00;;;;;;5078853;28;45846;-67
2023/05/11 03:32:11;;;;;;;2.00;1.30;;;10.70;70.00;;;;;;5078606;28;46433;-67
2023/05/11 03:34:36;;;;;;;2.20;1.20;;;10.70;69.90;;;;;;5079734;28;46389;-66
2023/05/11 03:37:05;;;;;;;2.60;1.30;;;10.70;69.90;;;;;;5078172;28;46497;-67
2023/05/11 03:39:34;;;;;;;3.13;1.60;;;10.70;70.10;;;;;;5079914;28;46350;-67
2023/05/11 03:42:00;;;;;;;2.73;1.10;;;10.60;70.10;;;;;;5079247;28;46400;-66
2023/05/11 03:44:29;;;;;;;8.57;1.33;;;10.70;70.20;;;;;;5080720;28;46415;-66
2023/05/11 03:46:56;;;;;;;2.30;1.40;;;10.60;69.90;;;;;;5082080;28;45806;-67
2023/05/11 03:49:23;;;;;;;6.60;1.43;;;10.60;70.00;;;;;;5082436;28;45939;-67
2023/05/11 03:51:49;;;;;;;4.27;1.50;;;10.60;70.00;;;;;;5080430;28;46641;-67
2023/05/11 03:54:14;;;;;;;2.90;1.63;;;10.60;70.10;;;;;;5080278;28;46436;-66
2023/05/11 03:56:40;;;;;;;4.00;1.40;;;10.60;70.00;;;;;;5082604;28;46466;-67
2023/05/11 03:59:07;;;;;;;4.50;1.50;;;10.60;70.10;;;;;;5082470;28;45776;-67
2023/05/11 04:01:33;;;;;;;1.90;1.30;;;10.60;70.20;;;;;;5081007;28;46376;-67
2023/05/11 04:03:58;;;;;;;3.33;1.80;;;10.60;70.10;;;;;;5077462;28;46651;-67
2023/05/11 04:06:24;;;;;;;4.40;1.70;;;10.60;70.30;;;;;;5077523;28;45789;-67
2023/05/11 04:08:50;;;;;;;2.40;1.30;;;10.60;70.20;;;;;;5082450;28;46360;-67
2023/05/11 04:11:15;;;;;;;1.70;1.10;;;10.60;70.30;;;;;;5080395;28;46318;-67
2023/05/11 04:13:41;;;;;;;1.97;1.30;;;10.60;70.20;;;;;;5080056;28;47154;-67
2023/05/11 04:16:07;;;;;;;2.10;1.23;;;10.60;70.20;;;;;;5082747;28;46441;-67
2023/05/11 04:18:33;;;;;;;4.23;1.77;;;10.60;70.20;;;;;;5079138;28;46438;-67
2023/05/11 04:20:58;;;;;;;1.90;1.30;;;10.60;71.40;;;;;;5080759;28;46408;-67
2023/05/11 04:23:24;;;;;;;5.33;1.80;;;10.60;70.10;;;;;;5079137;28;46328;-67
2023/05/11 04:25:53;;;;;;;3.53;1.50;;;10.60;70.10;;;;;;5078165;28;46383;-67
2023/05/11 04:28:21;;;;;;;2.30;1.40;;;10.70;70.10;;;;;;5080421;28;46475;-67
2023/05/11 04:30:52;;;;;;;2.53;1.20;;;10.70;71.30;;;;;;5080611;28;46669;-67
2023/05/11 04:33:18;;;;;;;4.00;1.43;;;10.70;70.00;;;;;;5079259;28;48243;-67
2023/05/11 04:35:44;;;;;;;3.57;1.30;;;10.70;70.00;;;;;;5081467;28;45864;-67
2023/05/11 04:38:10;;;;;;;2.43;1.37;;;10.70;70.00;;;;;;5080117;28;46371;-67
2023/05/11 04:40:35;;;;;;;2.80;1.13;;;10.70;69.90;;;;;;5079841;28;46583;-67
2023/05/11 04:43:01;;;;;;;3.70;1.40;;;10.70;69.90;;;;;;5079800;28;46433;-68
2023/05/11 04:45:26;;;;;;;5.20;1.47;;;10.70;70.00;;;;;;5080485;28;46374;-67
2023/05/11 04:47:52;;;;;;;2.50;1.23;;;10.70;70.00;;;;;;5078999;28;46390;-67
2023/05/11 04:50:18;;;;;;;2.30;1.40;;;10.70;70.00;;;;;;5078213;28;46567;-67
2023/05/11 04:52:43;;;;;;;2.93;1.60;;;10.70;70.00;;;;;;5081402;28;46510;-67
2023/05/11 04:55:09;;;;;;;2.40;1.53;;;10.80;70.10;;;;;;5080626;28;46366;-66
2023/05/11 04:57:37;;;;;;;3.10;1.73;;;10.80;70.00;;;;;;5080237;28;46353;-67
2023/05/11 05:00:06;;;;;;;4.10;1.50;;;10.80;70.10;;;;;;5081199;28;45885;-67
2023/05/11 05:02:31;;;;;;;3.17;1.30;;;10.80;70.00;;;;;;5079593;28;47060;-67
2023/05/11 05:04:57;;;;;;;3.07;1.50;;;10.80;70.00;;;;;;5081178;28;46447;-67
2023/05/11 05:07:23;;;;;;;1.77;1.20;;;10.90;70.00;;;;;;5077415;28;45860;-67
2023/05/11 05:09:48;;;;;;;3.30;1.23;;;10.80;70.00;;;;;;5082308;28;46947;-67
2023/05/11 05:12:14;;;;;;;4.53;1.60;;;10.80;70.10;;;;;;5078888;28;47075;-67
2023/05/11 05:14:39;;;;;;;2.90;1.80;;;10.90;70.10;;;;;;5079872;28;46410;-67
2023/05/11 05:17:06;;;;;;;3.77;1.53;;;10.90;70.00;;;;;;5080649;28;46698;-67
2023/05/11 05:19:31;;;;;;;5.30;1.40;;;10.90;69.90;;;;;;5079786;28;46531;-67
2023/05/11 05:21:57;;;;;;;4.43;1.70;;;11.00;69.90;;;;;;5080179;28;46408;-67
2023/05/11 05:24:23;;;;;;;6.33;2.20;;;11.00;69.90;;;;;;5080141;28;46416;-67
2023/05/11 05:26:48;;;;;;;4.53;1.80;;;11.00;70.00;;;;;;5077762;28;46395;-67
2023/05/11 05:29:14;;;;;;;19.97;10.03;;;11.00;70.00;;;;;;5079632;28;46445;-67
2023/05/11 05:31:40;;;;;;;9.53;6.50;;;11.10;70.00;;;;;;5076270;28;46433;-67
2023/05/11 05:34:05;;;;;;;7.10;4.57;;;11.10;70.00;;;;;;5076064;28;46360;-67
2023/05/11 05:36:31;;;;;;;3.27;2.23;;;11.10;69.90;;;;;;5077135;28;46373;-67
2023/05/11 05:38:57;;;;;;;2.70;2.07;;;11.20;69.90;;;;;;5080075;28;46380;-66
2023/05/11 05:41:22;;;;;;;3.30;2.20;;;11.20;69.60;;;;;;5078115;28;46560;-67
2023/05/11 05:43:48;;;;;;;5.60;3.63;;;11.20;69.70;;;;;;5077644;28;46339;-68
2023/05/11 05:46:14;;;;;;;2.77;2.10;;;11.30;69.70;;;;;;5081328;28;46395;-68
2023/05/11 05:48:40;;;;;;;3.67;2.77;;;11.20;69.80;;;;;;5077628;28;46752;-68
2023/05/11 05:51:06;;;;;;;4.27;3.87;;;11.30;69.90;;;;;;5081708;28;46368;-67
2023/05/11 05:53:31;;;;;;;4.50;2.50;;;11.20;69.80;;;;;;5075968;28;46455;-67
2023/05/11 05:55:57;;;;;;;17.47;9.27;;;11.20;70.00;;;;;;5077805;28;45976;-67
2023/05/11 05:58:22;;;;;;;7.27;3.27;;;11.20;70.20;;;;;;5076177;28;45834;-67
2023/05/11 06:00:48;;;;;;;3.43;2.03;;;11.30;70.20;;;;;;5074692;28;47043;-66
2023/05/11 06:03:14;;;;;;;3.23;1.53;;;11.30;70.00;;;;;;5076345;28;45912;-67
2023/05/11 06:05:40;;;;;;;2.60;2.03;;;11.40;69.90;;;;;;5075216;28;46319;-67
2023/05/11 06:08:05;;;;;;;2.77;1.80;;;11.40;69.90;;;;;;5074928;28;46639;-67
2023/05/11 06:10:31;;;;;;;3.17;1.90;;;11.40;69.90;;;;;;5073906;28;48026;-67
2023/05/11 06:12:57;;;;;;;5.37;1.70;;;11.40;70.00;;;;;;5073922;28;46424;-69
2023/05/11 06:15:22;;;;;;;2.30;1.47;;;11.30;70.00;;;;;;5077450;28;46536;-67
2023/05/11 06:17:48;;;;;;;2.80;1.33;;;11.30;70.20;;;;;;5074956;28;46663;-67
2023/05/11 06:20:13;;;;;;;3.13;1.13;;;11.30;70.00;;;;;;5077887;28;46523;-68
2023/05/11 06:22:39;;;;;;;1.90;1.37;;;11.30;69.90;;;;;;5074920;28;46666;-66
2023/05/11 06:25:05;;;;;;;2.40;1.23;;;11.30;70.00;;;;;;5075598;28;46393;-67
2023/05/11 06:27:31;;;;;;;2.00;1.27;;;11.40;70.00;;;;;;5078458;28;46341;-66
2023/05/11 06:29:56;;;;;;;4.07;1.43;;;11.40;70.00;;;;;;5078396;28;47260;-65
2023/05/11 06:32:22;;;;;;;1.90;1.30;;;11.40;69.70;;;;;;5076442;28;46693;-66
2023/05/11 06:34:47;;;;;;;2.57;1.10;;;11.50;69.50;;;;;;5079348;28;46438;-67
2023/05/11 06:37:19;;;;;;;3.60;1.30;;;11.50;69.30;;;;;;5076291;28;46467;-69
2023/05/11 06:39:46;;;;;;;3.00;1.30;;;11.50;69.30;;;;;;5072516;28;46553;-66
2023/05/11 06:42:11;;;;;;;2.20;1.20;;;11.60;68.80;;;;;;5072816;28;46639;-66
2023/05/11 06:44:38;;;;;;;7.10;1.43;;;11.60;68.80;;;;;;5076656;28;45820;-68
2023/05/11 06:47:04;;;;;;;2.10;1.30;;;11.60;68.80;;;;;;5076437;28;46453;-68
2023/05/11 06:49:30;;;;;;;3.40;1.70;;;11.60;68.90;;;;;;5075679;28;46725;-67
2023/05/11 06:51:55;;;;;;;20.07;12.03;;;11.60;69.00;;;;;;5074473;28;46420;-67
2023/05/11 06:54:21;;;;;;;3.90;2.30;;;11.60;69.00;;;;;;5074115;28;46650;-68
2023/05/11 06:56:47;;;;;;;4.60;3.20;;;11.70;69.00;;;;;;5006728;28;1998844;-70
2023/05/11 06:59:12;;;;;;;6.03;4.40;;;11.70;68.90;;;;;;5078738;28;47231;-66
2023/05/11 07:01:38;;;;;;;12.47;6.67;;;11.70;68.80;;;;;;5076703;28;46400;-68
2023/05/11 07:04:04;;;;;;;2.90;1.97;;;11.70;68.80;;;;;;5076653;28;46447;-68
2023/05/11 07:06:29;;;;;;;4.50;2.97;;;11.80;68.60;;;;;;5074517;28;46727;-67
2023/05/11 07:08:55;;;;;;;8.20;3.07;;;11.80;68.30;;;;;;5076943;28;46444;-67
2023/05/11 07:11:21;;;;;;;6.53;4.57;;;11.90;68.30;;;;;;5078539;28;46459;-67
2023/05/11 07:13:47;;;;;;;4.10;2.40;;;11.90;68.20;;;;;;5077922;28;46421;-67
2023/05/11 07:16:12;;;;;;;3.90;1.60;;;11.90;68.40;;;;;;5077622;28;45895;-66
2023/05/11 07:18:38;;;;;;;2.83;1.10;;;11.90;68.20;;;;;;5077683;28;46308;-67
2023/05/11 07:21:03;;;;;;;2.80;1.10;;;11.80;68.50;;;;;;5077473;28;46403;-68
2023/05/11 07:23:29;;;;;;;4.33;1.17;;;11.90;68.50;;;;;;5076036;28;46393;-68
2023/05/11 07:25:56;;;;;;;5.87;2.40;;;11.90;68.20;;;;;;5080295;28;46449;-68
2023/05/11 07:28:22;;;;;;;5.80;2.70;;;11.90;67.90;;;;;;5074502;28;46465;-65
2023/05/11 07:30:48;;;;;;;4.97;2.70;;;11.90;67.80;;;;;;5077644;28;46435;-66
2023/05/11 07:33:13;;;;;;;2.03;1.20;;;11.90;68.10;;;;;;5077541;28;46451;-65
2023/05/11 07:35:39;;;;;;;3.00;1.30;;;12.00;67.90;;;;;;5078110;28;46523;-65
2023/05/11 07:38:06;;;;;;;3.70;2.17;;;12.10;67.50;;;;;;5076454;28;47052;-67
2023/05/11 07:40:33;;;;;;;2.00;1.47;;;12.00;67.30;;;;;;5077370;28;46415;-66
2023/05/11 07:42:59;;;;;;;4.07;1.30;;;12.00;67.60;;;;;;5077249;28;46348;-66
2023/05/11 07:45:24;;;;;;;4.70;2.07;;;12.00;67.50;;;;;;5076925;28;46607;-66
2023/05/11 07:47:50;;;;;;;1.90;1.20;;;12.00;67.40;;;;;;5078088;28;46367;-65
2023/05/11 07:50:16;;;;;;;2.20;1.30;;;12.10;67.00;;;;;;5079416;28;46364;-65
2023/05/11 07:52:41;;;;;;;2.10;1.40;;;12.20;67.10;;;;;;5075781;28;45834;-66
2023/05/11 07:55:07;;;;;;;2.73;1.10;;;12.30;66.60;;;;;;5080119;28;46363;-65
2023/05/11 07:57:33;;;;;;;2.40;1.40;;;12.40;66.60;;;;;;5077964;28;46491;-66
2023/05/11 07:59:58;;;;;;;1.77;1.13;;;12.40;66.60;;;;;;5082023;28;46446;-65
2023/05/11 08:02:24;;;;;;;1.77;1.13;;;12.50;66.70;;;;;;5081247;28;45880;-65
2023/05/11 08:04:49;;;;;;;6.43;1.10;;;12.60;66.70;;;;;;5080658;28;46466;-65
2023/05/11 08:07:15;;;;;;;2.57;1.50;;;12.60;66.60;;;;;;5080666;28;46393;-65
2023/05/11 08:09:41;;;;;;;2.00;1.07;;;12.60;66.80;;;;;;5078062;28;46168;-64
2023/05/11 08:12:08;;;;;;;3.50;1.50;;;12.60;67.00;;;;;;5081583;28;46371;-65
2023/05/11 08:14:33;;;;;;;2.30;1.40;;;12.50;66.80;;;;;;5076437;28;46479;-64
2023/05/11 08:16:59;;;;;;;2.27;1.13;;;12.50;66.70;;;;;;5080914;28;46232;-66
2023/05/11 08:19:25;;;;;;;3.57;1.57;;;12.60;65.90;;;;;;5080870;28;46400;-64
2023/05/11 08:21:51;;;;;;;2.50;1.33;;;12.60;65.50;;;;;;5080390;28;46349;-65
2023/05/11 08:24:16;;;;;;;3.20;1.03;;;12.60;65.60;;;;;;5078189;28;46525;-64
2023/05/11 08:26:42;;;;;;;2.27;1.10;;;12.60;65.50;;;;;;5079058;28;46411;-65
2023/05/11 08:29:09;;;;;;;2.90;1.10;;;12.60;65.30;;;;;;5075471;28;46436;-66
2023/05/11 08:31:35;;;;;;;2.03;1.00;;;12.70;65.50;;;;;;5079671;28;46468;-64
2023/05/11 08:34:01;;;;;;;2.23;1.10;;;12.80;65.20;;;;;;5077758;28;46400;-65
2023/05/11 08:36:27;;;;;;;1.60;0.80;;;12.90;64.90;;;;;;5076831;28;46173;-64
2023/05/11 08:38:52;;;;;;;2.00;1.10;;;13.00;64.80;;;;;;5079022;28;46362;-66
2023/05/11 08:41:18;;;;;;;1.60;0.80;;;13.10;64.50;;;;;;5080666;28;46471;-65
2023/05/11 08:43:45;;;;;;;3.47;1.10;;;13.30;63.90;;;;;;5077667;28;46307;-64
2023/05/11 08:46:15;;;;;;;2.07;0.90;;;13.50;63.30;;;;;;5080255;28;46643;-65
2023/05/11 08:48:42;;;;;;;1.70;0.80;;;13.70;62.70;;;;;;5086992;28;46463;-69
2023/05/11 08:51:08;;;;;;;2.07;1.10;;;13.80;62.00;;;;;;5080908;28;46326;-64
2023/05/11 08:53:34;;;;;;;1.50;0.90;;;13.90;61.70;;;;;;5079169;28;46669;-65
2023/05/11 08:56:01;;;;;;;4.50;0.90;;;14.00;61.50;;;;;;5081902;28;46427;-64
2023/05/11 08:58:28;;;;;;;3.00;1.10;;;14.10;61.10;;;;;;5080884;28;46664;-64
2023/05/11 09:00:53;;;;;;;2.07;1.00;;;14.20;60.70;;;;;;5078545;28;46487;-64
2023/05/11 09:03:20;;;;;;;3.53;1.40;;;14.10;60.80;;;;;;5078611;28;45878;-64
2023/05/11 09:05:47;;;;;;;2.20;1.20;;;14.10;61.00;;;;;;5092925;27;47992;-64
2023/05/11 09:08:14;;;;;;;3.33;1.40;;;14.10;61.20;;;;;;5079403;27;46400;-64
2023/05/11 09:10:41;;;;;;;2.30;1.20;;;14.20;61.00;;;;;;5082717;28;46411;-66
2023/05/11 09:13:06;;;;;;;3.07;0.90;;;14.40;60.50;;;;;;5078894;28;46694;-66
2023/05/11 09:15:32;;;;;;;1.97;0.90;;;14.60;60.30;;;;;;5079516;28;46428;-67
2023/05/11 09:17:58;;;;;;;1.50;0.70;;;14.60;59.90;;;;;;5079016;28;46457;-65
2023/05/11 09:20:31;;;;;;;1.60;0.80;;;14.70;59.70;;;;;;5080264;28;46425;-64
2023/05/11 09:22:57;;;;;;;1.77;0.80;;;14.90;59.00;;;;;;5078676;28;46431;-64
2023/05/11 09:25:24;;;;;;;3.77;0.80;;;15.00;59.00;;;;;;5078529;28;46236;-66
2023/05/11 09:27:49;;;;;;;2.23;0.80;;;15.00;58.90;;;;;;5078195;28;46825;-66
2023/05/11 09:30:20;;;;;;;1.70;0.80;;;15.10;58.90;;;;;;5077116;28;46364;-65
2023/05/11 09:32:49;;;;;;;1.80;0.90;;;15.30;58.20;;;;;;5077629;28;45843;-64
2023/05/11 09:35:26;;;;;;;1.50;0.77;;;15.60;57.10;;;;;;5076046;28;46581;-65
2023/05/11 09:37:58;;;;;;;1.63;0.90;;;15.60;56.80;;;;;;5079008;28;45805;-65
2023/05/11 09:40:25;;;;;;;3.77;0.80;;;15.70;56.90;;;;;;5078472;28;46462;-65
2023/05/11 09:42:51;;;;;;;2.20;1.10;;;15.70;56.90;;;;;;5078677;28;46618;-64
2023/05/11 09:45:35;;;;;;;1.80;1.00;;;15.70;56.90;;;;;;5077233;28;48268;-65
2023/05/11 09:48:01;;;;;;;3.10;0.80;;;15.80;57.00;;;;;;5078810;28;46429;-66
2023/05/11 09:50:32;;;;;;;1.97;0.80;;;15.90;57.10;;;;;;5078288;28;46425;-64
2023/05/11 09:52:57;;;;;;;1.70;0.90;;;16.10;56.20;;;;;;5078342;28;46364;-65
2023/05/11 09:55:24;;;;;;;1.80;0.90;;;16.20;55.60;;;;;;5075566;28;46378;-64
2023/05/11 09:57:54;;;;;;;2.17;0.83;;;16.30;54.90;;;;;;5077640;28;46287;-65
2023/05/11 10:00:20;;;;;;;2.20;0.93;;;16.40;54.60;;;;;;5080102;28;46401;-67
2023/05/11 10:03:06;;;;;;;2.20;0.90;;;16.40;55.40;;;;;;5078004;28;47712;-64
2023/05/11 10:05:36;;;;;;;2.10;0.90;;;16.50;53.50;;;;;;5077758;28;46483;-64
2023/05/11 10:08:03;;;;;;;2.63;0.90;;;16.40;53.20;;;;;;5078650;28;46387;-66
2023/05/11 10:10:31;;;;;;;1.70;0.80;;;16.30;53.50;;;;;;5077256;27;46294;-64
2023/05/11 10:13:01;;;;;;;2.20;0.80;;;16.30;52.70;;;;;;5076909;28;46514;-65
2023/05/11 10:15:29;;;;;;;4.90;1.23;;;16.20;52.70;;;;;;5079316;28;46967;-65
2023/05/11 10:17:56;;;;;;;2.70;1.17;;;16.20;54.20;;;;;;5076346;28;46314;-64
2023/05/11 10:20:26;;;;;;;1.70;0.80;;;16.20;53.00;;;;;;5079265;28;46155;-63
2023/05/11 10:22:54;;;;;;;2.10;0.80;;;16.10;53.10;;;;;;5073672;28;46574;-64
2023/05/11 10:25:24;;;;;;;1.70;0.77;;;16.20;52.80;;;;;;5078806;28;47288;-65
2023/05/11 10:27:50;;;;;;;2.23;0.93;;;16.30;52.40;;;;;;5076477;28;46177;-64
2023/05/11 10:30:16;;;;;;;1.80;0.80;;;16.40;52.00;;;;;;5077513;28;46421;-65
2023/05/11 10:32:47;;;;;;;2.80;0.80;;;16.50;51.60;;;;;;5075731;28;46337;-63
2023/05/11 10:35:13;;;;;;;2.23;1.00;;;16.40;51.30;;;;;;5079428;28;46601;-66
2023/05/11 10:37:41;;;;;;;1.63;0.80;;;16.40;50.60;;;;;;5076661;28;46460;-65
2023/05/11 10:40:07;;;;;;;1.80;0.90;;;16.40;50.40;;;;;;5077500;28;46366;-65
2023/05/11 10:42:36;;;;;;;1.50;0.67;;;16.30;50.30;;;;;;5075537;27;45911;-62
2023/05/11 10:45:14;;;;;;;1.60;0.70;;;16.40;49.90;;;;;;5079173;28;46192;-66
2023/05/11 10:47:49;;;;;;;1.67;0.70;;;16.30;49.60;;;;;;5075433;28;46420;-66
2023/05/11 10:50:33;;;;;;;3.27;1.00;;;16.30;49.80;;;;;;5077302;28;46410;-64
2023/05/11 10:53:22;;;;;;;2.50;0.97;;;16.30;49.90;;;;;;5074827;28;46456;-64
2023/05/11 10:56:05;;;;;;;1.80;0.90;;;16.40;49.50;;;;;;5077659;28;47457;-64
2023/05/11 10:58:46;;;;;;;2.93;0.80;;;16.30;49.00;;;;;;5073464;28;46382;-65
2023/05/11 11:01:23;;;;;;;2.77;1.10;;;16.00;48.70;;;;;;5074506;28;46434;-64
2023/05/11 11:03:57;;;;;;;2.50;1.10;;;15.90;48.80;;;;;;5069390;28;45905;-65
2023/05/11 11:06:28;;;;;;;1.87;0.90;;;15.80;49.50;;;;;;5074660;28;47840;-65
2023/05/11 11:08:56;;;;;;;2.47;1.10;;;15.80;49.90;;;;;;5077593;28;46483;-66
2023/05/11 11:11:38;;;;;;;4.30;1.37;;;15.80;49.90;;;;;;5077504;28;46397;-66
2023/05/11 11:14:05;;;;;;;2.70;0.90;;;15.60;49.50;;;;;;5074911;28;46476;-65
2023/05/11 11:16:35;;;;;;;3.43;0.90;;;15.60;49.60;;;;;;5077049;28;46665;-64
2023/05/11 11:19:31;;;;;;;2.27;0.90;;;15.60;49.40;;;;;;5078017;28;46535;-65
2023/05/11 11:21:59;;;;;;;2.67;0.80;;;15.50;49.40;;;;;;5081351;28;46394;-65
2023/05/11 11:24:37;;;;;;;1.90;0.80;;;15.60;49.70;;;;;;5078547;28;46588;-64
2023/05/11 11:27:07;;;;;;;1.90;0.90;;;15.70;49.50;;;;;;5077143;28;47073;-64
2023/05/11 11:29:36;;;;;;;1.60;0.77;;;15.70;49.40;;;;;;5076929;28;45829;-64
2023/05/11 11:32:25;;;;;;;2.30;0.80;;;15.70;49.50;;;;;;5077167;27;46488;-64
2023/05/11 11:34:51;;;;;;;1.60;0.70;;;15.70;49.40;;;;;;5081653;28;46409;-64
2023/05/11 11:37:17;;;;;;;1.70;0.80;;;15.70;49.70;;;;;;5080046;28;46138;-64
2023/05/11 11:39:43;;;;;;;1.90;0.70;;;15.60;49.90;;;;;;5082140;28;46408;-67
2023/05/11 11:42:09;;;;;;;1.70;0.70;;;15.50;50.00;;;;;;5080115;28;46454;-66
2023/05/11 11:44:38;;;;;;;1.53;0.67;;;15.40;50.30;;;;;;5079851;28;46680;-65
2023/05/11 11:47:13;;;;;;;1.60;0.80;;;15.20;50.60;;;;;;5078187;28;46959;-65
2023/05/11 11:49:40;;;;;;;1.73;0.80;;;15.10;50.80;;;;;;5077419;28;46696;-64
2023/05/11 11:52:30;;;;;;;1.50;0.70;;;15.00;51.00;;;;;;5079171;28;46359;-64
2023/05/11 11:55:01;;;;;;;3.63;0.80;;;14.90;51.00;;;;;;5080237;28;46461;-64
2023/05/11 11:57:42;;;;;;;4.67;2.10;;;14.80;51.10;;;;;;5079610;28;46592;-64
2023/05/11 12:00:10;;;;;;;5.50;2.07;;;14.40;51.70;;;;;;5077886;28;46479;-64
2023/05/11 12:02:44;;;;;;;2.47;1.10;;;14.20;52.20;;;;;;5077191;28;46418;-63
2023/05/11 12:05:17;;;;;;;3.73;1.47;;;14.00;52.60;;;;;;5081534;28;46399;-65
2023/05/11 12:07:52;;;;;;;2.00;0.90;;;13.80;53.20;;;;;;5078208;28;46626;-65
2023/05/11 12:10:19;;;;;;;2.20;1.00;;;13.60;53.30;;;;;;5080013;28;45821;-64
2023/05/11 12:12:47;;;;;;;3.47;1.47;;;13.30;53.50;;;;;;5078606;28;46444;-65
2023/05/11 12:15:31;;;;;;;2.47;1.10;;;13.20;54.40;;;;;;5080470;28;46166;-65
2023/05/11 12:17:57;;;;;;;4.70;2.10;;;13.20;54.00;;;;;;5080330;28;46519;-65
2023/05/11 12:20:23;;;;;;;4.53;2.60;;;13.40;53.60;;;;;;5079089;28;46389;-65
2023/05/11 12:22:49;;;;;;;2.83;1.50;;;13.60;53.00;;;;;;5077718;28;46436;-65
2023/05/11 12:25:16;;;;;;;3.20;1.77;;;13.40;53.40;;;;;;5081297;28;46421;-65
2023/05/11 12:28:08;;;;;;;3.40;2.03;;;13.30;53.80;;;;;;5080583;28;47115;-65
2023/05/11 12:30:34;;;;;;;2.00;1.20;;;13.30;53.80;;;;;;5078331;28;46373;-66
2023/05/11 12:33:03;;;;;;;2.47;1.37;;;13.30;53.50;;;;;;5068539;28;46232;-66
2023/05/11 12:35:30;;;;;;;3.00;1.10;;;13.30;53.70;;;;;;5080293;28;46420;-65
2023/05/11 12:37:58;;;;;;;2.27;1.20;;;13.40;53.90;;;;;;5076266;28;46476;-64
2023/05/11 12:40:23;;;;;;;2.50;1.10;;;13.40;53.90;;;;;;5082814;28;45836;-65
2023/05/11 12:42:54;;;;;;;2.47;1.10;;;13.30;54.30;;;;;;5077272;28;46225;-66
2023/05/11 12:45:22;;;;;;;2.43;1.30;;;13.30;54.70;;;;;;5081998;28;46392;-66
2023/05/11 12:47:49;;;;;;;1.80;1.03;;;13.40;54.30;;;;;;5078703;28;46589;-64
2023/05/11 12:50:16;;;;;;;2.20;1.20;;;13.40;54.80;;;;;;5077675;28;46217;-65